Time;durP1;ratioP1;P1;durP2;ratioP2;P2;SDS_P1;SDS_P2;PMS_P1;PMS_P2;Temp;Humidity;BMP_temperature;BMP_pressure;BME280_temperature;BME280_humidity;BME280_pressure;Samples;Min_cycle;Max_cycle;Signal;HPM_P1;HPM_P2
2023/05/26 00:00:12;;;;;;;;;;;14.60;82.70;;;;;;4987622;28;20345;-65
2023/05/26 00:02:39;;;;;;;;;;;14.60;82.80;;;;;;4987400;28;20036;-65
2023/05/26 00:05:05;;;;;;;;;;;14.50;82.80;;;;;;4987358;28;19918;-65
2023/05/26 00:07:31;;;;;;;;;;;14.50;82.70;;;;;;4987800;28;19914;-65
2023/05/26 00:09:56;;;;;;;;;;;14.50;82.90;;;;;;4987803;28;19914;-64
2023/05/26 00:12:22;;;;;;;;;;;14.50;82.90;;;;;;4987289;28;20543;-65
2023/05/26 00:14:48;;;;;;;;;;;14.50;82.90;;;;;;4987572;28;19920;-65
2023/05/26 00:17:16;;;;;;;;;;;14.40;82.60;;;;;;4987454;28;19910;-65
2023/05/26 00:19:44;;;;;;;;;;;14.40;82.90;;;;;;4987692;28;19914;-65
2023/05/26 00:22:11;;;;;;;;;;;14.40;83.00;;;;;;4986738;28;19914;-65
2023/05/26 00:24:36;;;;;;;;;;;14.40;83.00;;;;;;4987644;28;20000;-65
2023/05/26 00:27:02;;;;;;;;;;;14.40;83.10;;;;;;4986243;28;20059;-65
2023/05/26 00:29:28;;;;;;;;;;;14.30;83.00;;;;;;4987342;28;19920;-65
2023/05/26 00:31:53;;;;;;;;;;;14.30;83.10;;;;;;4987173;28;20006;-65
2023/05/26 00:34:19;;;;;;;;;;;14.20;83.10;;;;;;4987118;28;19997;-65
2023/05/26 00:36:44;;;;;;;;;;;14.20;82.90;;;;;;4987603;28;19914;-65
2023/05/26 00:39:10;;;;;;;;;;;14.20;83.10;;;;;;4987415;28;19913;-65
2023/05/26 00:41:36;;;;;;;;;;;14.20;83.10;;;;;;4987238;28;20062;-65
2023/05/26 00:44:01;;;;;;;;;;;14.20;82.90;;;;;;4985509;28;19914;-65
2023/05/26 00:46:29;;;;;;;;;;;14.10;83.10;;;;;;4986215;28;20294;-65
2023/05/26 00:48:54;;;;;;;;;;;14.10;83.10;;;;;;4986994;28;20047;-65
2023/05/26 00:51:20;;;;;;;;;;;14.10;83.00;;;;;;4986989;28;20028;-65
2023/05/26 00:53:45;;;;;;;;;;;14.00;82.90;;;;;;4986967;28;19913;-65
2023/05/26 00:56:12;;;;;;;;;;;14.00;83.10;;;;;;4987226;28;19921;-65
2023/05/26 00:58:38;;;;;;;;;;;14.00;83.00;;;;;;4986977;28;20455;-65
2023/05/26 01:01:03;;;;;;;;;;;14.00;83.10;;;;;;4986903;28;19941;-65
2023/05/26 01:03:30;;;;;;;;;;;14.00;83.10;;;;;;4985574;28;19940;-65
2023/05/26 01:05:55;;;;;;;;;;;13.90;83.10;;;;;;4986806;28;19921;-65
2023/05/26 01:08:21;;;;;;;;;;;13.90;83.00;;;;;;4986949;28;19914;-65
2023/05/26 01:10:46;;;;;;;;;;;13.90;83.20;;;;;;4986910;28;19914;-65
2023/05/26 01:13:15;;;;;;;;;;;13.90;83.30;;;;;;4986950;28;20001;-65
2023/05/26 01:15:51;;;;;;;;;;;13.80;83.30;;;;;;4986937;28;19917;-65
2023/05/26 01:18:20;;;;;;;;;;;13.80;83.10;;;;;;4986727;28;19914;-65
2023/05/26 01:20:50;;;;;;;;;;;13.80;83.30;;;;;;4985307;28;19937;-65
2023/05/26 01:23:34;;;;;;;;;;;13.70;83.30;;;;;;5059174;28;19923;-65
2023/05/26 01:26:05;;;;;;;;;;;13.70;83.30;;;;;;5026094;28;19952;-65
2023/05/26 01:28:31;;;;;;;;;;;13.70;83.30;;;;;;4986602;28;19990;-65
2023/05/26 01:30:57;;;;;;;;;;;13.70;83.50;;;;;;4986628;28;19917;-65
2023/05/26 01:33:23;;;;;;;;;;;13.70;83.50;;;;;;4985777;28;20316;-65
2023/05/26 01:35:48;;;;;;;;;;;13.60;83.30;;;;;;4986555;28;19958;-65
2023/05/26 01:38:14;;;;;;;;;;;13.60;83.40;;;;;;4986482;28;19964;-64
2023/05/26 01:40:41;;;;;;;;;;;13.60;83.50;;;;;;4986515;28;20252;-64
2023/05/26 01:43:22;;;;;;;;;;;13.60;83.40;;;;;;4985914;28;19929;-65
2023/05/26 01:45:50;;;;;;;;;;;13.50;83.30;;;;;;4985712;28;20004;-65
2023/05/26 01:48:17;;;;;;;;;;;13.50;83.60;;;;;;4986008;28;19967;-64
2023/05/26 01:50:47;;;;;;;;;;;13.50;83.50;;;;;;4985965;28;20406;-65
2023/05/26 01:53:13;;;;;;;;;;;13.40;83.40;;;;;;4986041;28;19957;-65
2023/05/26 01:55:40;;;;;;;;;;;13.40;83.30;;;;;;4986164;28;19914;-65
2023/05/26 01:58:06;;;;;;;;;;;13.40;83.60;;;;;;4986073;28;20012;-65
2023/05/26 02:00:32;;;;;;;;;;;13.40;83.50;;;;;;4986217;28;20293;-65
2023/05/26 02:02:57;;;;;;;;;;;13.30;84.20;;;;;;4985612;28;19956;-65
2023/05/26 02:05:23;;;;;;;;;;;13.30;83.80;;;;;;4985818;28;19959;-65
2023/05/26 02:07:50;;;;;;;;;;;13.30;83.50;;;;;;4986002;28;20541;-65
2023/05/26 02:10:15;;;;;;;;;;;13.30;84.20;;;;;;4986238;28;19926;-65
2023/05/26 02:12:41;;;;;;;;;;;13.30;84.30;;;;;;4985824;28;19918;-65
2023/05/26 02:15:06;;;;;;;;;;;13.20;84.30;;;;;;4988016;28;20428;-65
2023/05/26 02:17:32;;;;;;;;;;;13.30;84.30;;;;;;4989506;28;19910;-65
2023/05/26 02:19:58;;;;;;;;;;;13.20;84.10;;;;;;4989272;28;19978;-65
2023/05/26 02:22:23;;;;;;;;;;;13.20;84.20;;;;;;4987664;28;20397;-65
2023/05/26 02:24:49;;;;;;;;;;;13.20;84.30;;;;;;4989355;28;19929;-65
2023/05/26 02:27:15;;;;;;;;;;;13.20;84.20;;;;;;4989473;28;20443;-65
2023/05/26 02:29:41;;;;;;;;;;;13.20;84.20;;;;;;4989188;28;19920;-65
2023/05/26 02:32:06;;;;;;;;;;;13.10;84.00;;;;;;4988672;28;20008;-65
2023/05/26 02:34:32;;;;;;;;;;;13.10;84.10;;;;;;4989110;28;19971;-65
2023/05/26 02:36:57;;;;;;;;;;;13.10;84.30;;;;;;4987760;28;19910;-65
2023/05/26 02:39:23;;;;;;;;;;;13.10;84.20;;;;;;4989132;28;19979;-65
2023/05/26 02:41:48;;;;;;;;;;;13.10;84.60;;;;;;4989017;28;19909;-65
2023/05/26 02:44:14;;;;;;;;;;;13.00;84.60;;;;;;4988837;28;19917;-65
2023/05/26 02:46:40;;;;;;;;;;;13.00;84.40;;;;;;4988684;28;19954;-65
2023/05/26 02:49:06;;;;;;;;;;;13.00;84.60;;;;;;4988983;28;19914;-65
2023/05/26 02:51:33;;;;;;;;;;;13.00;84.50;;;;;;4988784;28;20438;-65
2023/05/26 02:53:58;;;;;;;;;;;13.00;84.50;;;;;;4987178;28;20320;-65
2023/05/26 02:56:24;;;;;;;;;;;13.00;84.60;;;;;;4988820;28;19914;-65
2023/05/26 02:58:50;;;;;;;;;;;12.90;84.50;;;;;;4988716;28;20008;-64
2023/05/26 03:01:16;;;;;;;;;;;12.90;84.70;;;;;;4998942;28;19917;-65
2023/05/26 03:03:41;;;;;;;;;;;12.90;84.50;;;;;;5025280;28;19919;-65
2023/05/26 03:06:07;;;;;;;;;;;12.90;84.70;;;;;;5066442;28;19916;-65
2023/05/26 03:08:34;;;;;;;;;;;12.90;84.70;;;;;;5090644;28;19916;-65
2023/05/26 03:10:59;;;;;;;;;;;12.90;84.70;;;;;;5090721;28;19945;-65
2023/05/26 03:13:25;;;;;;;;;;;12.80;84.70;;;;;;5090903;28;20372;-65
2023/05/26 03:15:50;;;;;;;;;;;12.80;84.70;;;;;;5090099;28;19919;-65
2023/05/26 03:18:16;;;;;;;;;;;12.80;84.70;;;;;;5090947;28;19912;-65
2023/05/26 03:20:43;;;;;;;;;;;12.80;84.70;;;;;;5091054;28;19912;-65
2023/05/26 03:23:08;;;;;;;;;;;12.80;84.60;;;;;;5090293;28;20381;-65
2023/05/26 03:25:34;;;;;;;;;;;12.80;84.60;;;;;;5045416;28;19929;-65
2023/05/26 03:27:59;;;;;;;;;;;12.80;84.70;;;;;;4987433;28;19914;-65
2023/05/26 03:30:25;;;;;;;;;;;12.80;84.70;;;;;;4988115;28;19921;-65
2023/05/26 03:32:50;;;;;;;;;;;12.80;84.60;;;;;;4991583;28;19949;-65
2023/05/26 03:35:16;;;;;;;;;;;12.80;84.70;;;;;;4988045;28;19914;-65
2023/05/26 03:37:42;;;;;;;;;;;12.70;84.60;;;;;;4988302;28;19941;-65
2023/05/26 03:40:08;;;;;;;;;;;12.70;84.70;;;;;;4988240;28;19967;-65
2023/05/26 03:42:33;;;;;;;;;;;12.80;84.80;;;;;;4987757;28;20390;-65
2023/05/26 03:44:59;;;;;;;;;;;12.70;84.60;;;;;;4986422;28;19924;-65
2023/05/26 03:47:24;;;;;;;;;;;12.70;84.80;;;;;;4987489;28;20013;-65
2023/05/26 03:49:50;;;;;;;;;;;12.70;84.60;;;;;;4983974;28;19968;-65
2023/05/26 03:52:16;;;;;;;;;;;12.70;84.60;;;;;;5026608;28;19921;-65
2023/05/26 03:54:41;;;;;;;;;;;12.60;84.60;;;;;;5083220;28;19935;-65
2023/05/26 03:57:07;;;;;;;;;;;12.60;84.50;;;;;;4987771;28;19920;-65
2023/05/26 03:59:32;;;;;;;;;;;12.60;84.60;;;;;;4987790;28;20325;-65
2023/05/26 04:01:58;;;;;;;;;;;12.60;84.50;;;;;;4987788;28;19968;-65
2023/05/26 04:04:24;;;;;;;;;;;12.60;84.60;;;;;;4987670;28;19914;-65
2023/05/26 04:06:50;;;;;;;;;;;12.60;84.80;;;;;;4987732;28;19925;-65
2023/05/26 04:09:15;;;;;;;;;;;12.60;84.80;;;;;;4987687;28;20455;-65
2023/05/26 04:11:41;;;;;;;;;;;12.60;84.70;;;;;;4987442;28;19991;-65
2023/05/26 04:14:07;;;;;;;;;;;12.70;84.80;;;;;;4987475;28;19925;-65
2023/05/26 04:16:33;;;;;;;;;;;12.60;84.70;;;;;;4987700;28;19914;-65
2023/05/26 04:18:58;;;;;;;;;;;12.70;84.80;;;;;;4987483;28;19955;-65
2023/05/26 04:21:24;;;;;;;;;;;12.60;84.80;;;;;;4987416;28;19927;-65
2023/05/26 04:23:51;;;;;;;;;;;12.70;84.80;;;;;;4987596;28;20002;-65
2023/05/26 04:26:17;;;;;;;;;;;12.70;84.80;;;;;;4987450;28;19918;-65
2023/05/26 04:28:44;;;;;;;;;;;12.70;84.80;;;;;;4987299;28;19914;-65
2023/05/26 04:31:09;;;;;;;;;;;12.70;84.90;;;;;;4986136;28;20367;-65
2023/05/26 04:33:39;;;;;;;;;;;12.70;84.80;;;;;;4986907;28;19967;-65
2023/05/26 04:36:10;;;;;;;;;;;12.70;84.80;;;;;;4987329;28;19913;-65
2023/05/26 04:38:36;;;;;;;;;;;12.70;85.30;;;;;;4987304;28;19944;-65
2023/05/26 04:41:06;;;;;;;;;;;12.70;84.90;;;;;;4987442;28;19914;-65
2023/05/26 04:43:34;;;;;;;;;;;12.70;84.90;;;;;;4986890;28;19914;-65
2023/05/26 04:46:01;;;;;;;;;;;12.70;84.90;;;;;;4985235;28;20368;-65
2023/05/26 04:48:27;;;;;;;;;;;12.70;84.90;;;;;;4986900;28;20005;-65
2023/05/26 04:50:53;;;;;;;;;;;12.70;84.90;;;;;;4986778;28;19992;-65
2023/05/26 04:53:18;;;;;;;;;;;12.70;84.90;;;;;;4985659;28;20432;-65
2023/05/26 04:55:44;;;;;;;;;;;12.70;84.90;;;;;;4987026;28;19914;-65
2023/05/26 04:58:10;;;;;;;;;;;12.70;84.90;;;;;;4986862;28;20000;-65
2023/05/26 05:00:36;;;;;;;;;;;12.70;84.90;;;;;;4986904;28;19914;-65
2023/05/26 05:03:03;;;;;;;;;;;12.70;84.90;;;;;;4986402;28;19913;-65
2023/05/26 05:05:29;;;;;;;;;;;12.70;84.90;;;;;;4985077;28;19914;-65
2023/05/26 05:07:55;;;;;;;;;;;12.70;84.90;;;;;;4985569;28;19914;-65
2023/05/26 05:10:20;;;;;;;;;;;12.70;85.00;;;;;;4986935;28;19914;-65
2023/05/26 05:12:46;;;;;;;;;;;12.70;84.90;;;;;;4986747;28;19913;-65
2023/05/26 05:15:11;;;;;;;;;;;12.80;85.00;;;;;;4986769;28;19914;-65
2023/05/26 05:17:38;;;;;;;;;;;12.80;85.10;;;;;;4985565;28;20004;-65
2023/05/26 05:20:04;;;;;;;;;;;12.80;85.00;;;;;;4986916;28;19914;-65
2023/05/26 05:22:29;;;;;;;;;;;12.80;85.00;;;;;;4986544;28;19997;-65
2023/05/26 05:24:56;;;;;;;;;;;12.80;85.00;;;;;;4986569;28;20788;-65
2023/05/26 05:27:22;;;;;;;;;;;12.80;85.00;;;;;;4986577;28;20006;-65
2023/05/26 05:29:47;;;;;;;;;;;12.80;85.00;;;;;;4986416;28;20530;-65
2023/05/26 05:32:13;;;;;;;;;;;12.80;84.90;;;;;;4985988;28;20013;-65
2023/05/26 05:34:38;;;;;;;;;;;12.80;84.90;;;;;;4986292;28;19913;-65
2023/05/26 05:37:04;;;;;;;;;;;12.80;84.90;;;;;;5070922;28;19916;-65
2023/05/26 05:39:30;;;;;;;;;;;12.80;84.90;;;;;;5088739;28;19999;-65
2023/05/26 05:41:55;;;;;;;;;;;12.90;84.90;;;;;;5088328;28;19916;-65
2023/05/26 05:44:20;;;;;;;;;;;12.90;84.90;;;;;;5077014;28;20596;-65
2023/05/26 05:46:46;;;;;;;;;;;12.90;84.80;;;;;;4985795;28;19960;-65
2023/05/26 05:49:11;;;;;;;;;;;12.90;84.80;;;;;;4985598;28;19918;-65
2023/05/26 05:51:37;;;;;;;;;;;12.90;84.80;;;;;;4985771;28;19914;-65
2023/05/26 05:54:02;;;;;;;;;;;13.00;84.80;;;;;;4986057;28;19917;-65
2023/05/26 05:56:28;;;;;;;;;;;13.00;84.80;;;;;;4986017;28;20047;-65
2023/05/26 05:58:53;;;;;;;;;;;13.00;84.90;;;;;;4985845;28;19987;-65
2023/05/26 06:01:19;;;;;;;;;;;13.00;84.80;;;;;;4986048;28;19963;-65
2023/05/26 06:03:45;;;;;;;;;;;13.00;84.80;;;;;;4984364;28;20363;-65
2023/05/26 06:06:10;;;;;;;;;;;13.00;85.30;;;;;;4986094;28;19914;-65
2023/05/26 06:08:36;;;;;;;;;;;13.10;84.80;;;;;;4986239;28;19922;-65
2023/05/26 06:11:02;;;;;;;;;;;13.10;84.80;;;;;;4984654;28;20005;-65
2023/05/26 06:13:28;;;;;;;;;;;13.10;84.70;;;;;;4985759;28;20339;-65
2023/05/26 06:15:53;;;;;;;;;;;13.10;84.70;;;;;;4986176;28;19960;-65
2023/05/26 06:18:19;;;;;;;;;;;13.10;84.70;;;;;;4985854;28;20735;-65
2023/05/26 06:20:44;;;;;;;;;;;13.10;84.70;;;;;;4985842;28;20484;-65
2023/05/26 06:23:10;;;;;;;;;;;13.10;84.30;;;;;;4985497;28;20297;-65
2023/05/26 06:25:35;;;;;;;;;;;13.10;84.60;;;;;;4985978;28;19914;-65
2023/05/26 06:28:01;;;;;;;;;;;13.10;84.60;;;;;;4985961;28;19929;-64
2023/05/26 06:30:26;;;;;;;;;;;13.20;84.70;;;;;;4986096;28;20520;-65
2023/05/26 06:32:52;;;;;;;;;;;13.20;84.60;;;;;;4985339;28;19918;-65
2023/05/26 06:35:18;;;;;;;;;;;13.20;84.60;;;;;;4985643;28;19957;-65
2023/05/26 06:37:43;;;;;;;;;;;13.20;84.60;;;;;;4985731;28;19921;-65
2023/05/26 06:40:09;;;;;;;;;;;13.30;84.70;;;;;;4984284;28;19913;-65
2023/05/26 06:42:35;;;;;;;;;;;13.30;84.60;;;;;;4985332;28;19914;-65
2023/05/26 06:45:00;;;;;;;;;;;13.30;84.50;;;;;;4983853;28;20376;-65
2023/05/26 06:47:26;;;;;;;;;;;13.30;84.50;;;;;;4985116;28;20472;-65
2023/05/26 06:49:51;;;;;;;;;;;13.30;84.40;;;;;;4985314;28;19918;-65
2023/05/26 06:52:17;;;;;;;;;;;13.40;84.50;;;;;;4985269;28;19914;-65
2023/05/26 06:54:42;;;;;;;;;;;13.40;84.50;;;;;;4985674;28;19914;-65
2023/05/26 06:57:08;;;;;;;;;;;13.40;84.40;;;;;;4985468;28;19914;-65
2023/05/26 06:59:33;;;;;;;;;;;13.50;84.30;;;;;;4985550;28;19910;-65
2023/05/26 07:01:59;;;;;;;;;;;13.50;84.20;;;;;;4988372;28;19921;-65
2023/05/26 07:04:24;;;;;;;;;;;13.50;84.10;;;;;;4988711;28;20381;-65
2023/05/26 07:06:50;;;;;;;;;;;13.50;84.10;;;;;;4988517;28;20410;-65
2023/05/26 07:09:15;;;;;;;;;;;13.60;84.10;;;;;;4987192;28;19910;-65
2023/05/26 07:11:41;;;;;;;;;;;13.60;83.90;;;;;;4988511;28;19921;-65
2023/05/26 07:14:06;;;;;;;;;;;13.70;83.80;;;;;;4988414;28;20008;-65
2023/05/26 07:16:32;;;;;;;;;;;13.70;83.70;;;;;;4987486;28;20333;-65
2023/05/26 07:18:57;;;;;;;;;;;13.70;83.70;;;;;;4988684;28;19921;-65
2023/05/26 07:21:25;;;;;;;;;;;13.80;83.70;;;;;;4988624;28;19909;-65
2023/05/26 07:23:51;;;;;;;;;;;13.80;83.60;;;;;;4988114;28;19922;-64
2023/05/26 07:26:16;;;;;;;;;;;13.80;83.60;;;;;;4986998;28;19917;-65
2023/05/26 07:28:42;;;;;;;;;;;13.80;83.50;;;;;;4986974;28;20619;-65
2023/05/26 07:31:07;;;;;;;;;;;13.80;83.60;;;;;;4988307;28;19914;-65
2023/05/26 07:33:33;;;;;;;;;;;13.80;83.70;;;;;;4986613;28;20040;-65
2023/05/26 07:35:58;;;;;;;;;;;13.80;83.70;;;;;;4988250;28;19917;-65
2023/05/26 07:38:24;;;;;;;;;;;13.80;83.70;;;;;;4988084;28;19913;-65
2023/05/26 07:40:51;;;;;;;;;;;13.90;83.70;;;;;;4988049;28;19997;-65
2023/05/26 07:43:16;;;;;;;;;;;13.90;83.70;;;;;;4990753;28;19918;-65
2023/05/26 07:45:42;;;;;;;;;;;13.80;83.60;;;;;;5015710;28;20023;-65
2023/05/26 07:48:07;;;;;;;;;;;13.90;83.70;;;;;;4987700;28;19914;-65
2023/05/26 07:50:33;;;;;;;;;;;13.80;83.70;;;;;;4988310;28;19914;-65
2023/05/26 07:52:59;;;;;;;;;;;13.90;83.70;;;;;;4987713;28;19910;-64
2023/05/26 07:55:24;;;;;;;;;;;13.80;83.60;;;;;;4987956;28;19914;-65
2023/05/26 07:57:50;;;;;;;;;;;13.90;83.60;;;;;;4987318;28;19921;-65
2023/05/26 08:00:15;;;;;;;;;;;13.90;83.60;;;;;;4987919;28;19917;-65
2023/05/26 08:02:41;;;;;;;;;;;13.90;83.60;;;;;;4987345;28;19914;-65
2023/05/26 08:05:07;;;;;;;;;;;13.90;83.50;;;;;;4987597;28;19922;-65
2023/05/26 08:07:32;;;;;;;;;;;14.00;83.50;;;;;;4987819;28;19910;-65
2023/05/26 08:09:58;;;;;;;;;;;14.00;83.40;;;;;;4987726;28;19914;-65
2023/05/26 08:12:23;;;;;;;;;;;14.00;83.30;;;;;;4986907;28;19914;-65
2023/05/26 08:14:49;;;;;;;;;;;14.00;83.10;;;;;;4987820;28;20378;-65
2023/05/26 08:17:15;;;;;;;;;;;14.10;83.10;;;;;;4987380;28;19914;-65
2023/05/26 08:19:40;;;;;;;;;;;14.20;83.10;;;;;;4987720;28;19910;-65
2023/05/26 08:22:06;;;;;;;;;;;14.10;82.90;;;;;;4987139;28;19941;-65
2023/05/26 08:24:31;;;;;;;;;;;14.20;82.90;;;;;;4987931;28;20278;-65
2023/05/26 08:26:57;;;;;;;;;;;14.20;82.70;;;;;;4986330;28;19918;-65
2023/05/26 08:29:22;;;;;;;;;;;14.30;82.60;;;;;;4987673;28;19967;-65
2023/05/26 08:31:48;;;;;;;;;;;14.30;82.80;;;;;;4987275;28;20309;-65
2023/05/26 08:34:14;;;;;;;;;;;14.30;82.70;;;;;;4987075;28;19910;-65
2023/05/26 08:36:39;;;;;;;;;;;14.30;82.60;;;;;;4987387;28;19913;-65
2023/05/26 08:39:05;;;;;;;;;;;14.40;82.60;;;;;;4987516;28;19914;-65
2023/05/26 08:41:39;;;;;;;;;;;14.40;82.50;;;;;;4987372;28;19921;-65
2023/05/26 08:44:05;;;;;;;;;;;14.40;82.40;;;;;;4987003;28;19966;-65
2023/05/26 08:46:31;;;;;;;;;;;14.40;82.30;;;;;;4986243;28;19918;-65
2023/05/26 08:48:57;;;;;;;;;;;14.50;82.30;;;;;;4987184;28;19914;-65
2023/05/26 08:51:23;;;;;;;;;;;14.50;82.40;;;;;;4987062;28;19914;-65
2023/05/26 08:53:49;;;;;;;;;;;14.50;82.30;;;;;;4986993;28;19941;-65
2023/05/26 08:56:15;;;;;;;;;;;14.50;82.30;;;;;;4986906;28;20286;-65
2023/05/26 08:58:42;;;;;;;;;;;14.60;82.00;;;;;;4986854;28;19913;-65
2023/05/26 09:01:08;;;;;;;;;;;14.60;82.20;;;;;;4986841;28;19917;-65
2023/05/26 09:03:33;;;;;;;;;;;14.60;82.10;;;;;;4986582;28;19909;-65
2023/05/26 09:05:58;;;;;;;;;;;14.60;82.00;;;;;;4986886;28;20095;-65
2023/05/26 09:08:24;;;;;;;;;;;14.70;81.90;;;;;;4987010;28;19982;-65
2023/05/26 09:10:49;;;;;;;;;;;14.70;81.90;;;;;;4985643;28;19920;-65
2023/05/26 09:13:17;;;;;;;;;;;14.80;81.80;;;;;;4986390;28;19910;-65
2023/05/26 09:15:48;;;;;;;;;;;14.90;81.80;;;;;;4986856;28;20282;-65
2023/05/26 09:18:14;;;;;;;;;;;14.90;82.30;;;;;;4986777;28;20419;-65
2023/05/26 09:20:43;;;;;;;;;;;14.90;81.60;;;;;;4987047;28;19913;-65
2023/05/26 09:23:09;;;;;;;;;;;15.00;81.50;;;;;;4985415;28;19918;-65
2023/05/26 09:25:35;;;;;;;;;;;15.00;81.40;;;;;;4986703;28;19925;-65
2023/05/26 09:28:02;;;;;;;;;;;15.10;81.40;;;;;;4986477;28;19910;-65
2023/05/26 09:30:28;;;;;;;;;;;15.00;81.40;;;;;;4986662;28;19914;-65
2023/05/26 09:32:54;;;;;;;;;;;15.10;81.50;;;;;;4986278;28;19914;-65
2023/05/26 09:35:19;;;;;;;;;;;15.10;81.60;;;;;;4986399;28;19921;-65
2023/05/26 09:37:45;;;;;;;;;;;15.10;81.50;;;;;;4986409;28;19914;-65
2023/05/26 09:40:14;;;;;;;;;;;15.10;81.40;;;;;;4986402;28;19910;-65
2023/05/26 09:43:00;;;;;;;;;;;15.20;81.40;;;;;;4986234;28;19929;-65
2023/05/26 09:45:26;;;;;;;;;;;15.20;81.40;;;;;;4984136;28;20282;-65
2023/05/26 09:47:54;;;;;;;;;;;15.20;81.30;;;;;;4985949;28;19913;-65
2023/05/26 09:50:19;;;;;;;;;;;15.30;81.20;;;;;;4986144;28;19914;-65
2023/05/26 09:52:46;;;;;;;;;;;15.30;81.20;;;;;;5066902;28;20394;-65
2023/05/26 09:55:11;;;;;;;;;;;15.40;81.20;;;;;;5060325;28;19918;-65
2023/05/26 09:57:38;;;;;;;;;;;15.40;81.10;;;;;;4986271;28;20268;-65
2023/05/26 10:00:09;;;;;;;;;;;15.50;81.10;;;;;;4985979;28;19910;-65
2023/05/26 10:02:34;;;;;;;;;;;15.50;80.90;;;;;;4985858;28;19910;-66
2023/05/26 10:05:00;;;;;;;;;;;15.60;80.90;;;;;;4985846;28;19914;-65
2023/05/26 10:07:27;;;;;;;;;;;15.60;80.80;;;;;;4985621;28;20282;-65
2023/05/26 10:09:55;;;;;;;;;;;15.60;81.00;;;;;;4983563;28;19914;-66
2023/05/26 10:12:25;;;;;;;;;;;15.60;80.90;;;;;;4985780;28;19975;-65
2023/05/26 10:14:52;;;;;;;;;;;15.70;80.90;;;;;;4985963;28;20285;-66
2023/05/26 10:17:17;;;;;;;;;;;15.70;81.40;;;;;;4985829;28;19914;-66
2023/05/26 10:19:43;;;;;;;;;;;15.80;80.70;;;;;;4985943;28;19933;-65
2023/05/26 10:22:11;;;;;;;;;;;15.80;80.60;;;;;;4985270;28;19910;-66
2023/05/26 10:24:44;;;;;;;;;;;15.90;80.60;;;;;;4985923;28;19942;-66
2023/05/26 10:27:19;;;;;;;;;;;16.00;80.60;;;;;;4985827;28;19918;-66
2023/05/26 10:29:48;;;;;;;;;;;16.00;80.40;;;;;;4985937;28;19914;-66
2023/05/26 10:32:32;;;;;;;;;;;16.00;80.50;;;;;;4985607;28;19917;-65
2023/05/26 10:34:58;;;;;;;;;;;16.10;80.50;;;;;;4970135;28;19937;-66
2023/05/26 10:37:25;;;;;;;;;;;16.20;80.50;;;;;;4969744;28;20347;-65
2023/05/26 10:39:51;;;;;;;;;;;16.30;80.30;;;;;;4968445;28;20005;-65
2023/05/26 10:42:18;;;;;;;;;;;16.30;80.30;;;;;;4969415;28;20063;-66
2023/05/26 10:44:44;;;;;;;;;;;16.40;80.30;;;;;;4967648;28;20294;-66
2023/05/26 10:47:14;;;;;;;;;;;16.50;80.20;;;;;;4992239;28;19914;-66
2023/05/26 10:49:40;;;;;;;;;;;16.60;80.40;;;;;;4999046;28;19966;-65
2023/05/26 10:52:13;;;;;;;;;;;16.70;80.30;;;;;;5007155;28;19917;-65
2023/05/26 10:54:39;;;;;;;;;;;16.70;80.30;;;;;;5038262;28;19910;-65
2023/05/26 10:57:04;;;;;;;;;;;16.80;80.30;;;;;;4988011;28;19960;-66
2023/05/26 10:59:31;;;;;;;;;;;16.90;80.00;;;;;;4987952;28;20417;-66
2023/05/26 11:02:00;;;;;;;;;;;17.00;80.10;;;;;;4987776;28;19924;-66
2023/05/26 11:04:39;;;;;;;;;;;17.10;80.10;;;;;;4987616;28;19914;-65
2023/05/26 11:07:13;;;;;;;;;;;17.20;80.00;;;;;;4987639;28;19925;-65
2023/05/26 11:09:53;;;;;;;;;;;17.30;80.00;;;;;;4987760;28;19910;-66
2023/05/26 11:12:19;;;;;;;;;;;17.40;80.10;;;;;;4987309;28;19916;-66
2023/05/26 11:14:45;;;;;;;;;;;17.50;80.20;;;;;;4987768;28;19953;-66
2023/05/26 11:17:11;;;;;;;;;;;17.60;80.10;;;;;;4987681;28;20330;-66
2023/05/26 11:19:37;;;;;;;;;;;17.60;80.00;;;;;;4986364;28;19921;-66
2023/05/26 11:22:04;;;;;;;;;;;17.70;80.00;;;;;;4986211;28;19910;-66
2023/05/26 11:24:30;;;;;;;;;;;17.80;79.90;;;;;;4987827;28;19987;-66
2023/05/26 11:26:58;;;;;;;;;;;17.90;80.00;;;;;;4987498;28;19921;-66
2023/05/26 11:29:23;;;;;;;;;;;18.00;80.00;;;;;;4987400;28;20418;-66
2023/05/26 11:31:49;;;;;;;;;;;18.10;79.90;;;;;;4987067;28;19920;-66
2023/05/26 11:34:15;;;;;;;;;;;18.20;79.70;;;;;;4987335;28;19968;-66
2023/05/26 11:36:44;;;;;;;;;;;18.20;79.70;;;;;;4987273;28;19910;-66
2023/05/26 11:39:09;;;;;;;;;;;18.20;79.80;;;;;;4987130;28;19956;-66
2023/05/26 11:41:35;;;;;;;;;;;18.30;79.90;;;;;;4987300;28;19953;-66
2023/05/26 11:44:05;;;;;;;;;;;18.40;79.80;;;;;;4986938;28;20001;-66
2023/05/26 11:46:32;;;;;;;;;;;18.50;79.70;;;;;;4985370;28;20006;-66
2023/05/26 11:48:59;;;;;;;;;;;18.60;79.70;;;;;;4987082;28;19948;-66
2023/05/26 11:51:24;;;;;;;;;;;18.70;79.90;;;;;;4995253;28;19918;-66
2023/05/26 11:53:53;;;;;;;;;;;18.80;79.70;;;;;;5022962;28;19921;-66
2023/05/26 11:56:20;;;;;;;;;;;18.80;79.50;;;;;;4986938;28;19950;-66
2023/05/26 11:58:46;;;;;;;;;;;18.80;79.50;;;;;;4986787;28;19963;-66
2023/05/26 12:01:12;;;;;;;;;;;18.90;79.40;;;;;;4986784;28;19987;-66
2023/05/26 12:03:41;;;;;;;;;;;19.00;79.70;;;;;;4986519;28;19914;-66
2023/05/26 12:06:20;;;;;;;;;;;19.00;79.60;;;;;;4986941;28;19960;-66
2023/05/26 12:08:57;;;;;;;;;;;19.10;79.50;;;;;;4986623;28;20004;-66
2023/05/26 12:11:29;;;;;;;;;;;19.10;79.70;;;;;;4986678;28;19918;-66
2023/05/26 12:13:56;;;;;;;;;;;19.20;79.50;;;;;;4986321;28;20032;-66
2023/05/26 12:16:55;;;;;;;;;;;19.30;79.70;;;;;;4986631;28;19957;-66
2023/05/26 12:19:24;;;;;;;;;;;19.40;79.70;;;;;;4973513;28;19917;-66
2023/05/26 12:21:58;;;;;;;;;;;19.40;79.90;;;;;;5053419;27;19918;-66
2023/05/26 12:24:33;;;;;;;;;;;19.50;79.80;;;;;;5034475;28;19925;-66
2023/05/26 12:27:06;;;;;;;;;;;19.50;79.70;;;;;;5023237;28;19970;-66
2023/05/26 12:29:33;;;;;;;;;;;19.60;79.70;;;;;;5082019;28;20377;-66
2023/05/26 12:31:59;;;;;;;;;;;19.70;79.60;;;;;;5044492;28;20007;-66
2023/05/26 12:34:27;;;;;;;;;;;19.70;79.60;;;;;;5052747;28;19943;-66
2023/05/26 12:36:53;;;;;;;;;;;19.80;79.70;;;;;;4987237;28;19952;-66
2023/05/26 12:39:19;;;;;;;;;;;19.80;79.80;;;;;;4987061;28;19941;-66
2023/05/26 12:41:45;;;;;;;;;;;19.90;79.90;;;;;;4985704;28;19952;-66
2023/05/26 12:44:14;;;;;;;;;;;19.90;79.70;;;;;;4990006;28;19914;-66
2023/05/26 12:46:40;;;;;;;;;;;20.00;79.70;;;;;;4986684;28;19975;-66
2023/05/26 12:49:07;;;;;;;;;;;20.00;79.60;;;;;;4986896;28;20497;-66
2023/05/26 12:51:33;;;;;;;;;;;20.10;79.70;;;;;;4987178;28;19956;-66
2023/05/26 12:54:00;;;;;;;;;;;20.10;79.80;;;;;;4987004;28;19910;-66
2023/05/26 12:56:26;;;;;;;;;;;20.20;79.60;;;;;;4986185;28;20438;-66
2023/05/26 12:58:51;;;;;;;;;;;20.30;80.30;;;;;;4987390;28;20438;-66
2023/05/26 13:01:17;;;;;;;;;;;20.30;79.90;;;;;;4986909;28;19917;-66
2023/05/26 13:03:43;;;;;;;;;;;20.30;79.90;;;;;;4985291;28;20034;-66
2023/05/26 13:06:09;;;;;;;;;;;20.40;79.80;;;;;;4985989;28;19917;-66
2023/05/26 13:08:35;;;;;;;;;;;20.40;79.50;;;;;;4992920;28;19967;-66
2023/05/26 13:11:01;;;;;;;;;;;20.50;80.30;;;;;;5005758;28;20557;-66
2023/05/26 13:13:27;;;;;;;;;;;20.60;79.30;;;;;;5005860;28;20548;-66
2023/05/26 13:15:53;;;;;;;;;;;20.60;79.80;;;;;;5006041;28;19914;-66
2023/05/26 13:18:19;;;;;;;;;;;20.70;79.40;;;;;;5004981;28;20005;-66
2023/05/26 13:20:45;;;;;;;;;;;20.70;79.20;;;;;;5004851;28;19913;-67
2023/05/26 13:23:10;;;;;;;;;;;20.70;79.30;;;;;;5006094;28;19924;-66
2023/05/26 13:25:36;;;;;;;;;;;20.80;78.80;;;;;;4997395;28;19917;-66
2023/05/26 13:28:03;;;;;;;;;;;20.80;79.20;;;;;;4986088;28;20295;-66
2023/05/26 13:30:29;;;;;;;;;;;20.90;79.00;;;;;;4985329;28;20311;-66
2023/05/26 13:32:55;;;;;;;;;;;20.90;79.00;;;;;;4986182;28;19940;-67
2023/05/26 13:35:20;;;;;;;;;;;21.00;79.10;;;;;;4986452;28;19914;-67
2023/05/26 13:37:46;;;;;;;;;;;21.00;78.80;;;;;;4986281;28;20640;-66
2023/05/26 13:40:12;;;;;;;;;;;21.10;78.70;;;;;;4986439;28;19914;-66
2023/05/26 13:42:38;;;;;;;;;;;21.10;78.50;;;;;;4986255;28;19921;-66
2023/05/26 13:45:05;;;;;;;;;;;21.10;78.20;;;;;;4984466;28;20290;-66
2023/05/26 13:47:30;;;;;;;;;;;21.20;78.60;;;;;;4985833;28;19917;-66
2023/05/26 13:49:56;;;;;;;;;;;21.20;78.10;;;;;;4984293;28;20259;-66
2023/05/26 13:52:21;;;;;;;;;;;21.30;77.80;;;;;;5029370;28;20027;-66
2023/05/26 13:54:47;;;;;;;;;;;21.40;77.60;;;;;;5077868;28;20003;-66
2023/05/26 13:57:13;;;;;;;;;;;21.40;77.60;;;;;;4986098;28;19918;-66
2023/05/26 13:59:38;;;;;;;;;;;21.50;77.10;;;;;;5037661;28;20002;-65
2023/05/26 14:02:04;;;;;;;;;;;21.50;76.80;;;;;;5073464;28;19914;-65
2023/05/26 14:04:30;;;;;;;;;;;21.50;77.10;;;;;;4985993;28;19967;-66
2023/05/26 14:06:55;;;;;;;;;;;21.50;77.00;;;;;;4986193;28;19979;-66
2023/05/26 14:09:21;;;;;;;;;;;21.60;76.90;;;;;;4986817;28;20020;-66
2023/05/26 14:11:46;;;;;;;;;;;21.60;76.30;;;;;;4989344;28;19921;-66